Terminal Aerodrome Forecast
Issued by NWS Medford, OR

Home | Current Version | Previous Version | Text Only | Print | Product List | Glossary On
Versions: 1 2 3 4 5 6 7 8 9 10 11 12 13 14 15
000
FTUS46 KMFR 021140
TAFMFR
TAF
KMFR 021140Z 0212/0312 VRB03KT P6SM SCT040 BKN070
     FM021800 32007KT P6SM BKN040 OVC070
     FM022100 32012G20KT P6SM SCT040 BKN060
     FM030400 33007KT P6SM FEW040 BKN060=

USA.gov is the U.S. government's official web portal to all federal, state and local government web resources and services.